createdAt,value
2018-02-04T00:02:17.237Z,3.50
2018-02-04T00:04:43.578Z,3.43
2018-02-04T00:07:09.959Z,3.60
2018-02-04T00:09:37.087Z,3.60
2018-02-04T00:12:03.541Z,3.20
2018-02-04T00:14:30.674Z,4.00
2018-02-04T00:16:57.016Z,3.30
2018-02-04T00:19:23.429Z,3.50
2018-02-04T00:21:49.824Z,3.57
2018-02-04T00:24:16.906Z,3.80
2018-02-04T00:26:43.266Z,3.63
2018-02-04T00:29:09.655Z,3.40
2018-02-04T00:31:36.768Z,3.30
2018-02-04T00:34:03.136Z,3.50
2018-02-04T00:36:30.263Z,3.90
2018-02-04T00:38:56.948Z,3.50
2018-02-04T00:41:23.356Z,3.50
2018-02-04T00:43:49.729Z,4.17
2018-02-04T00:46:16.093Z,3.37
2018-02-04T00:48:42.558Z,4.00
2018-02-04T00:51:08.943Z,3.20
2018-02-04T00:53:35.296Z,3.10
2018-02-04T00:56:01.630Z,3.63
2018-02-04T00:58:28.048Z,3.47
2018-02-04T01:00:54.455Z,3.77
2018-02-04T01:03:20.795Z,3.47
2018-02-04T01:05:47.157Z,3.03
2018-02-04T01:08:14.276Z,3.47
2018-02-04T01:10:40.695Z,3.07
2018-02-04T01:13:07.097Z,3.27
2018-02-04T01:15:33.480Z,3.80
2018-02-04T01:17:59.820Z,3.37
2018-02-04T01:20:26.155Z,3.40
2018-02-04T01:22:52.512Z,3.33
2018-02-04T01:25:18.917Z,3.40
2018-02-04T01:27:45.241Z,3.17
2018-02-04T01:30:11.610Z,3.87
2018-02-04T01:32:39.488Z,3.20
2018-02-04T01:35:05.823Z,3.90
2018-02-04T01:37:32.219Z,4.20
2018-02-04T01:39:58.621Z,3.67
2018-02-04T01:42:25.754Z,3.70
2018-02-04T01:44:52.136Z,3.00
2018-02-04T01:47:18.475Z,3.30
2018-02-04T01:49:44.905Z,3.40
2018-02-04T01:52:11.294Z,3.23
2018-02-04T01:54:37.692Z,3.33
2018-02-04T01:57:04.070Z,3.87
2018-02-04T01:59:30.427Z,3.40
2018-02-04T02:01:58.476Z,3.23
2018-02-04T02:04:24.851Z,3.00
2018-02-04T02:06:51.963Z,2.93
2018-02-04T02:09:18.461Z,3.90
2018-02-04T02:11:44.804Z,3.53
2018-02-04T02:14:11.163Z,3.50
2018-02-04T02:16:37.614Z,3.17
2018-02-04T02:19:03.981Z,3.27
2018-02-04T02:21:30.367Z,3.67
2018-02-04T02:23:56.749Z,3.67
2018-02-04T02:26:23.157Z,3.77
2018-02-04T02:28:49.574Z,3.30
2018-02-04T02:31:15.960Z,3.47
2018-02-04T02:33:42.303Z,3.37
2018-02-04T02:36:08.684Z,3.40
2018-02-04T02:38:35.016Z,3.13
2018-02-04T02:41:01.420Z,3.00
2018-02-04T02:43:28.535Z,3.70
2018-02-04T02:45:54.996Z,3.40
2018-02-04T02:48:22.808Z,3.53
2018-02-04T02:50:49.188Z,3.80
2018-02-04T02:53:15.550Z,3.27
2018-02-04T02:55:42.704Z,3.13
2018-02-04T02:58:09.091Z,3.30
2018-02-04T03:00:35.463Z,3.00
2018-02-04T03:03:01.828Z,3.30
2018-02-04T03:05:28.934Z,3.40
2018-02-04T03:07:55.323Z,3.50
2018-02-04T03:10:22.435Z,3.00
2018-02-04T03:12:48.836Z,2.97
2018-02-04T03:15:15.192Z,3.00
2018-02-04T03:17:41.591Z,3.40
2018-02-04T03:20:08.701Z,3.33
2018-02-04T03:22:35.066Z,3.00
2018-02-04T03:25:01.424Z,3.50
2018-02-04T03:27:28.499Z,2.90
2018-02-04T03:29:54.943Z,3.00
2018-02-04T03:32:28.471Z,3.43
2018-02-04T03:34:54.813Z,3.53
2018-02-04T03:37:21.184Z,2.67
2018-02-04T03:39:48.328Z,2.80
2018-02-04T03:42:14.647Z,3.07
2018-02-04T03:44:41.023Z,2.93
2018-02-04T03:47:08.140Z,3.07
2018-02-04T03:49:34.516Z,3.13
2018-02-04T03:52:01.605Z,2.90
2018-02-04T03:54:27.975Z,3.23
2018-02-04T03:56:54.303Z,3.60
2018-02-04T03:59:20.695Z,3.07
2018-02-04T04:01:47.086Z,3.47
2018-02-04T04:04:13.438Z,3.10
2018-02-04T04:06:40.504Z,3.43
2018-02-04T04:09:07.671Z,3.63
2018-02-04T04:11:34.009Z,3.10
2018-02-04T04:14:00.456Z,3.20
2018-02-04T04:16:26.791Z,3.10
2018-02-04T04:18:53.116Z,3.00
2018-02-04T04:21:19.491Z,3.13
2018-02-04T04:23:45.879Z,3.13
2018-02-04T04:26:12.943Z,3.03
2018-02-04T04:28:39.323Z,2.97
2018-02-04T04:31:05.666Z,3.67
2018-02-04T04:33:32.026Z,3.40
2018-02-04T04:35:58.439Z,3.20
2018-02-04T04:38:24.771Z,3.10
2018-02-04T04:40:51.176Z,3.53
2018-02-04T04:43:17.511Z,2.93
2018-02-04T04:45:43.950Z,3.20
2018-02-04T04:48:10.282Z,3.20
2018-02-04T04:50:36.676Z,3.63
2018-02-04T04:53:03.091Z,3.17
2018-02-04T04:55:29.471Z,3.40
2018-02-04T04:57:56.552Z,3.20
2018-02-04T05:00:22.966Z,3.57
2018-02-04T05:02:50.039Z,3.23
2018-02-04T05:05:16.420Z,2.90
2018-02-04T05:07:42.762Z,2.87
2018-02-04T05:10:09.151Z,3.77
2018-02-04T05:12:35.474Z,3.10
2018-02-04T05:15:02.615Z,3.30
2018-02-04T05:17:29.752Z,3.97
2018-02-04T05:19:56.157Z,3.20
2018-02-04T05:22:22.509Z,3.40
2018-02-04T05:24:48.871Z,3.30
2018-02-04T05:27:15.210Z,3.03
2018-02-04T05:29:41.543Z,3.17
2018-02-04T05:32:07.903Z,4.07
2018-02-04T05:34:34.972Z,3.30
2018-02-04T05:37:01.344Z,3.60
2018-02-04T05:39:27.769Z,3.10
2018-02-04T05:41:54.110Z,3.03
2018-02-04T05:44:20.528Z,3.40
2018-02-04T05:46:46.901Z,3.73
2018-02-04T05:49:13.306Z,3.00
2018-02-04T05:51:39.775Z,2.80
2018-02-04T05:54:06.242Z,2.67
2018-02-04T05:56:32.616Z,2.50
2018-02-04T05:58:59.016Z,2.70
2018-02-04T06:01:25.392Z,2.50
2018-02-04T06:03:51.726Z,2.70
2018-02-04T06:06:18.064Z,2.47
2018-02-04T06:08:44.429Z,2.57
2018-02-04T06:11:10.808Z,2.70
2018-02-04T06:13:37.876Z,3.00
2018-02-04T06:16:05.027Z,2.80
2018-02-04T06:18:32.171Z,2.80
2018-02-04T06:20:59.262Z,2.90
2018-02-04T06:23:25.638Z,2.93
2018-02-04T06:25:52.108Z,2.70
2018-02-04T06:28:19.243Z,2.80
2018-02-04T06:30:45.608Z,2.97
2018-02-04T06:33:11.999Z,2.80
2018-02-04T06:35:38.388Z,2.97
2018-02-04T06:38:04.792Z,3.17
2018-02-04T06:40:31.120Z,3.00
2018-02-04T06:42:57.516Z,3.17
2018-02-04T06:45:23.899Z,3.20
2018-02-04T06:47:50.227Z,3.77
2018-02-04T06:50:16.604Z,3.17
2018-02-04T06:52:42.943Z,2.97
2018-02-04T06:55:10.031Z,3.40
2018-02-04T06:57:36.391Z,2.97
2018-02-04T07:00:02.868Z,3.23
2018-02-04T07:02:29.963Z,2.87
2018-02-04T07:04:56.389Z,2.73
2018-02-04T07:07:22.732Z,2.90
2018-02-04T07:09:49.068Z,3.47
2018-02-04T07:12:15.452Z,2.67
2018-02-04T07:14:41.847Z,3.10
2018-02-04T07:17:08.188Z,2.83
2018-02-04T07:19:34.520Z,2.83
2018-02-04T07:22:00.943Z,2.90
2018-02-04T07:24:27.324Z,3.13
2018-02-04T07:26:53.773Z,2.80
2018-02-04T07:29:20.151Z,3.03
2018-02-04T07:31:46.487Z,2.80
2018-02-04T07:34:12.828Z,3.07
2018-02-04T07:36:39.188Z,2.73
2018-02-04T07:39:05.583Z,2.90
2018-02-04T07:41:32.667Z,2.93
2018-02-04T07:43:59.044Z,2.83
2018-02-04T07:46:25.371Z,2.90
2018-02-04T07:48:51.717Z,3.60
2018-02-04T07:51:18.060Z,3.23
2018-02-04T07:53:44.420Z,3.30
2018-02-04T07:56:11.500Z,2.90
2018-02-04T07:58:37.860Z,3.00
2018-02-04T08:01:04.335Z,3.00
2018-02-04T08:03:31.450Z,3.00
2018-02-04T08:05:57.815Z,3.00
2018-02-04T08:08:24.172Z,3.33
2018-02-04T08:11:07.410Z,2.97
2018-02-04T08:13:33.737Z,3.10
2018-02-04T08:16:00.811Z,4.13
2018-02-04T08:18:27.202Z,2.90
2018-02-04T08:20:53.591Z,3.20
2018-02-04T08:23:19.923Z,2.97
2018-02-04T08:25:46.311Z,2.80
2018-02-04T08:28:12.714Z,3.30
2018-02-04T08:30:39.065Z,3.13
2018-02-04T08:33:05.488Z,3.20
2018-02-04T08:35:31.885Z,2.90
2018-02-04T08:37:59.006Z,3.20
2018-02-04T08:40:26.129Z,3.83
2018-02-04T08:42:52.504Z,3.50
2018-02-04T08:45:18.844Z,3.30
2018-02-04T08:47:45.194Z,3.70
2018-02-04T08:50:12.298Z,3.87
2018-02-04T08:52:38.634Z,3.10
2018-02-04T08:55:04.970Z,3.50
2018-02-04T08:57:31.324Z,4.30
2018-02-04T08:59:57.674Z,3.57
2018-02-04T09:02:24.007Z,4.20
2018-02-04T09:04:51.890Z,4.40
2018-02-04T09:07:18.248Z,5.20
2018-02-04T09:09:45.330Z,4.40
2018-02-04T09:12:11.698Z,5.70
2018-02-04T09:14:38.107Z,4.13
2018-02-04T09:17:04.464Z,6.83
2018-02-04T09:19:30.799Z,4.30
2018-02-04T09:21:57.159Z,4.00
2018-02-04T09:24:23.586Z,4.00
2018-02-04T09:26:49.932Z,3.90
2018-02-04T09:29:16.293Z,4.20
2018-02-04T09:31:43.436Z,4.73
2018-02-04T09:34:20.419Z,4.27
2018-02-04T09:36:46.760Z,4.87
2018-02-04T09:39:13.885Z,3.63
2018-02-04T09:41:40.240Z,3.57
2018-02-04T09:44:06.595Z,3.87
2018-02-04T09:51:39.113Z,4.20
2018-02-04T09:54:06.230Z,3.70
2018-02-04T09:56:32.659Z,3.80
2018-02-04T09:58:59.069Z,3.97
2018-02-04T10:01:25.412Z,3.60
2018-02-04T10:03:51.859Z,3.90
2018-02-04T10:06:18.201Z,4.10
2018-02-04T10:08:44.645Z,4.10
2018-02-04T10:11:11.039Z,4.13
2018-02-04T10:13:38.167Z,3.57
2018-02-04T10:16:05.544Z,3.23
2018-02-04T10:18:32.627Z,3.97
2018-02-04T10:20:59.007Z,4.40
2018-02-04T10:23:25.399Z,4.17
2018-02-04T10:25:51.744Z,3.77
2018-02-04T10:28:18.123Z,3.43
2018-02-04T10:30:44.518Z,3.07
2018-02-04T10:33:10.912Z,3.37
2018-02-04T10:35:44.135Z,3.50
2018-02-04T10:38:10.524Z,4.10
2018-02-04T10:40:37.597Z,4.20
2018-02-04T10:43:04.696Z,3.70
2018-02-04T10:45:31.100Z,3.60
2018-02-04T10:47:58.247Z,4.13
2018-02-04T10:50:25.333Z,3.77
2018-02-04T10:52:51.737Z,3.40
2018-02-04T10:55:18.825Z,3.10
2018-02-04T10:57:45.180Z,3.30
2018-02-04T11:00:11.568Z,3.63
2018-02-04T11:02:38.672Z,4.07
2018-02-04T11:05:05.009Z,3.23
2018-02-04T11:07:31.360Z,5.87
2018-02-04T11:09:57.855Z,4.10
2018-02-04T11:12:24.254Z,4.07
2018-02-04T11:14:50.656Z,3.33
2018-02-04T11:17:17.028Z,3.50
2018-02-04T11:19:43.425Z,6.47
2018-02-04T11:22:09.841Z,5.30
2018-02-04T11:24:36.212Z,4.73
2018-02-04T12:34:15.448Z,123.77
2018-02-04T12:36:42.560Z,1831.83
2018-02-04T12:39:08.924Z,1718.77
2018-02-04T12:41:35.264Z,1999.90
2018-02-04T12:44:01.640Z,1111.23
2018-02-04T12:46:27.997Z,1962.83
2018-02-04T12:48:54.347Z,4.87
2018-02-04T12:51:20.760Z,734.13
2018-02-04T12:53:47.116Z,1999.90
2018-02-04T12:56:13.503Z,1999.90
2018-02-04T12:58:40.663Z,1999.90
2018-02-04T13:01:07.744Z,1999.90
2018-02-04T13:03:34.091Z,1693.87
2018-02-04T13:06:00.471Z,1902.27
2018-02-04T13:08:26.850Z,923.40
2018-02-04T13:13:50.406Z,568.97
2018-02-04T13:16:17.501Z,1999.90
2018-02-04T13:18:43.848Z,1999.90
2018-02-04T13:21:10.229Z,1999.90
2018-02-04T13:23:37.340Z,1635.73
2018-02-04T13:26:03.716Z,1999.90
2018-02-04T13:28:30.862Z,523.70
2018-02-04T13:30:57.209Z,584.93
2018-02-04T13:33:24.384Z,927.70
2018-02-04T13:35:50.750Z,72.07
2018-02-04T13:38:17.092Z,266.70
2018-02-04T13:40:43.501Z,67.03
2018-02-04T13:43:09.867Z,44.93
2018-02-04T13:45:36.224Z,274.90
2018-02-04T13:48:02.645Z,6.83
2018-02-04T13:50:29.026Z,6.77
2018-02-04T13:55:53.070Z,9.43
2018-02-04T13:58:19.459Z,33.07
2018-02-04T14:00:46.569Z,13.73
2018-02-04T14:03:12.931Z,8.93
2018-02-04T14:05:40.053Z,7.73
2018-02-04T14:08:06.511Z,9.47
2018-02-04T14:10:32.895Z,6.43
2018-02-04T14:12:59.263Z,8.93
2018-02-04T14:15:25.672Z,10.13
2018-02-04T14:17:52.065Z,5.70
2018-02-04T14:20:18.423Z,5.47
2018-02-04T14:22:45.579Z,7.20
2018-02-04T14:25:12.722Z,5.50
2018-02-04T14:27:39.837Z,6.53
2018-02-04T14:33:03.118Z,6.37
2018-02-04T14:35:29.520Z,6.53
2018-02-04T14:37:55.930Z,9.07
2018-02-04T14:40:23.102Z,6.87
2018-02-04T14:42:49.471Z,8.87
2018-02-04T14:45:15.881Z,7.10
2018-02-04T14:47:42.295Z,6.23
2018-02-04T14:50:09.459Z,6.00
2018-02-04T14:52:36.577Z,7.60
2018-02-04T14:55:02.972Z,13.77
2018-02-04T14:57:29.348Z,6.47
2018-02-04T14:59:55.724Z,6.00
2018-02-04T15:02:22.832Z,9.63
2018-02-04T15:04:49.202Z,12.03
2018-02-04T15:07:15.611Z,4.93
2018-02-04T15:09:41.977Z,4.93
2018-02-04T15:12:09.097Z,14.83
2018-02-04T15:14:35.483Z,10.03
2018-02-04T15:17:02.611Z,9.27
2018-02-04T15:19:28.977Z,4.87
2018-02-04T15:21:56.110Z,7.50
2018-02-04T15:24:22.476Z,7.63
2018-02-04T15:26:48.835Z,6.77
2018-02-04T15:29:15.238Z,5.50
2018-02-04T15:31:42.396Z,6.70
2018-02-04T15:34:09.647Z,7.27
2018-02-04T15:36:36.814Z,5.77
2018-02-04T15:39:03.394Z,6.07
2018-02-04T15:41:29.868Z,7.83
2018-02-04T15:43:58.398Z,6.30
2018-02-04T15:46:25.530Z,7.40
2018-02-04T15:48:52.805Z,5.53
2018-02-04T15:51:19.318Z,7.20
2018-02-04T15:53:46.510Z,4.03
2018-02-04T15:56:12.924Z,4.83
2018-02-04T15:58:40.255Z,4.57
2018-02-04T16:01:06.756Z,7.77
2018-02-04T16:03:33.327Z,6.40
2018-02-04T16:05:59.753Z,6.23
2018-02-04T16:08:26.256Z,4.67
2018-02-04T16:10:52.678Z,6.27
2018-02-04T16:13:19.909Z,5.30
2018-02-04T16:15:46.372Z,4.30
2018-02-04T16:18:13.582Z,3.70
2018-02-04T16:20:40.098Z,4.40
2018-02-04T16:23:06.529Z,4.13
2018-02-04T16:25:32.972Z,3.83
2018-02-04T16:27:59.374Z,3.50
2018-02-04T16:30:26.509Z,3.50
2018-02-04T16:32:52.892Z,3.47
2018-02-04T16:35:19.586Z,3.30
2018-02-04T16:37:46.128Z,5.30
2018-02-04T16:40:12.564Z,3.70
2018-02-04T16:42:39.053Z,3.33
2018-02-04T16:45:05.555Z,2.93
2018-02-04T16:47:31.944Z,3.50
2018-02-04T16:49:58.325Z,3.40
2018-02-04T16:52:24.679Z,3.40
2018-02-04T16:54:51.079Z,2.90
2018-02-04T16:57:17.485Z,2.70
2018-02-04T16:59:43.873Z,3.80
2018-02-04T17:02:10.239Z,3.10
2018-02-04T17:04:37.388Z,3.80
2018-02-04T17:07:04.569Z,3.57
2018-02-04T17:09:30.925Z,3.13
2018-02-04T17:11:57.359Z,3.47
2018-02-04T17:14:23.795Z,5.50
2018-02-04T17:16:51.092Z,3.23
2018-02-04T17:19:17.528Z,3.23
2018-02-04T17:21:44.000Z,3.67
2018-02-04T17:24:39.192Z,5.67
2018-02-04T17:27:06.338Z,4.63
2018-02-04T17:29:32.701Z,5.97
2018-02-04T17:31:59.135Z,5.97
2018-02-04T17:34:26.249Z,7.67
2018-02-04T17:36:52.611Z,4.90
2018-02-04T17:39:19.817Z,9.97
2018-02-04T17:41:46.271Z,6.63
2018-02-04T17:44:12.702Z,17.30
2018-02-04T17:46:39.119Z,12.67
2018-02-04T17:49:05.473Z,9.63
2018-02-04T17:51:31.978Z,11.60
2018-02-04T17:53:59.204Z,6.63
2018-02-04T17:56:25.652Z,14.30
2018-02-04T17:58:52.033Z,11.37
2018-02-04T18:01:18.495Z,6.30
2018-02-04T18:03:44.899Z,8.03
2018-02-04T18:06:11.281Z,4.30
2018-02-04T18:08:37.707Z,4.30
2018-02-04T18:11:04.141Z,5.50
2018-02-04T18:13:30.584Z,4.27
2018-02-04T18:15:56.948Z,4.77
2018-02-04T18:18:23.410Z,3.50
2018-02-04T18:20:50.524Z,4.00
2018-02-04T18:23:17.048Z,3.20
2018-02-04T18:25:43.433Z,6.83
2018-02-04T18:28:09.852Z,4.23
2018-02-04T18:30:36.230Z,5.87
2018-02-04T18:33:02.625Z,3.60
2018-02-04T18:35:29.153Z,3.13
2018-02-04T18:37:55.680Z,4.80
2018-02-04T18:40:22.098Z,3.60
2018-02-04T18:42:48.492Z,3.73
2018-02-04T18:45:22.713Z,4.60
2018-02-04T18:47:49.136Z,4.40
2018-02-04T18:50:15.538Z,5.53
2018-02-04T18:52:41.980Z,3.93
2018-02-04T18:55:15.270Z,7.00
2018-02-04T18:57:41.662Z,3.80
2018-02-04T19:00:08.851Z,5.10
2018-02-04T19:02:35.327Z,4.87
2018-02-04T19:05:01.724Z,5.83
2018-02-04T19:07:28.156Z,5.23
2018-02-04T19:09:55.322Z,4.27
2018-02-04T19:12:21.789Z,5.30
2018-02-04T19:14:48.403Z,5.60
2018-02-04T19:17:14.809Z,7.17
2018-02-04T19:19:41.943Z,3.93
2018-02-04T19:22:08.328Z,4.07
2018-02-04T19:24:34.732Z,8.70
2018-02-04T19:27:01.216Z,5.27
2018-02-04T19:29:27.645Z,5.77
2018-02-04T19:31:54.029Z,4.80
2018-02-04T19:34:20.404Z,7.10
2018-02-04T19:36:47.541Z,5.57
2018-02-04T19:39:15.436Z,4.13
2018-02-04T19:41:42.584Z,4.70
2018-02-04T19:44:09.734Z,4.73
2018-02-04T19:46:36.216Z,7.83
2018-02-04T19:49:02.586Z,6.60
2018-02-04T19:51:28.953Z,4.30
2018-02-04T19:53:56.140Z,4.60
2018-02-04T19:56:22.619Z,8.90
2018-02-04T19:58:49.045Z,4.30
2018-02-04T20:01:15.435Z,5.50
2018-02-04T20:03:42.598Z,4.40
2018-02-04T20:06:09.102Z,5.23
2018-02-04T20:08:35.603Z,4.07
2018-02-04T20:11:02.170Z,4.30
2018-02-04T20:13:28.568Z,6.53
2018-02-04T20:15:55.025Z,4.67
2018-02-04T20:18:21.508Z,5.33
2018-02-04T20:20:47.942Z,4.20
2018-02-04T20:23:15.083Z,4.67
2018-02-04T20:25:41.526Z,4.20
2018-02-04T20:28:07.934Z,5.80
2018-02-04T20:30:34.387Z,6.40
2018-02-04T20:33:21.192Z,6.37
2018-02-04T20:35:47.580Z,4.60
2018-02-04T20:38:14.736Z,3.87
2018-02-04T20:40:41.177Z,5.43
2018-02-04T20:43:07.607Z,4.53
2018-02-04T20:45:34.863Z,6.47
2018-02-04T20:48:02.062Z,6.23
2018-02-04T20:50:28.598Z,5.77
2018-02-04T20:52:54.976Z,4.03
2018-02-04T20:55:21.405Z,5.07
2018-02-04T20:57:47.785Z,4.80
2018-02-04T21:00:40.825Z,5.13
2018-02-04T21:03:07.996Z,5.27
2018-02-04T21:05:34.393Z,3.70
2018-02-04T21:08:00.891Z,5.50
2018-02-04T21:10:27.303Z,4.63
2018-02-04T21:12:53.708Z,6.40
2018-02-04T21:15:20.135Z,6.50
2018-02-04T21:17:46.542Z,6.00
2018-02-04T21:20:12.917Z,6.67
2018-02-04T21:22:39.376Z,4.67
2018-02-04T21:25:06.564Z,4.67
2018-02-04T21:27:32.963Z,6.20
2018-02-04T21:29:59.410Z,5.60
2018-02-04T21:32:26.538Z,6.10
2018-02-04T21:34:53.717Z,5.27
2018-02-04T21:37:20.986Z,5.90
2018-02-04T21:39:48.130Z,4.17
2018-02-04T21:42:15.271Z,5.27
2018-02-04T21:44:41.708Z,5.60
2018-02-04T21:47:08.105Z,5.67
2018-02-04T21:49:34.476Z,7.00
2018-02-04T21:52:00.877Z,6.47
2018-02-04T21:54:27.257Z,5.80
2018-02-04T21:56:55.110Z,7.03
2018-02-04T21:59:21.503Z,6.33
2018-02-04T22:01:47.972Z,5.43
2018-02-04T22:04:14.376Z,4.53
2018-02-04T22:06:40.807Z,8.93
2018-02-04T22:09:07.912Z,7.60
2018-02-04T22:11:34.334Z,5.87
2018-02-04T22:14:00.737Z,4.10
2018-02-04T22:16:27.866Z,5.17
2018-02-04T22:18:54.276Z,4.33
2018-02-04T22:21:20.631Z,4.43
2018-02-04T22:23:47.035Z,4.47
2018-02-04T22:26:13.384Z,4.50
2018-02-04T22:28:39.796Z,3.80
2018-02-04T22:31:06.230Z,4.67
2018-02-04T22:33:32.611Z,4.20
2018-02-04T22:35:59.036Z,3.77
2018-02-04T22:38:25.435Z,4.70
2018-02-04T22:40:52.535Z,3.60
2018-02-04T22:43:18.927Z,4.40
2018-02-04T22:45:45.309Z,3.43
2018-02-04T22:48:11.691Z,4.30
2018-02-04T22:50:38.845Z,3.87
2018-02-04T22:53:06.012Z,3.70
2018-02-04T22:55:40.791Z,3.53
2018-02-04T22:58:07.195Z,3.77
2018-02-04T23:00:33.628Z,4.20
2018-02-04T23:02:59.984Z,4.00
2018-02-04T23:05:26.393Z,3.60
2018-02-04T23:07:52.779Z,3.77
2018-02-04T23:10:19.167Z,4.40
2018-02-04T23:12:45.664Z,4.40
2018-02-04T23:15:12.109Z,3.90
2018-02-04T23:17:38.564Z,4.10
2018-02-04T23:20:04.962Z,3.77
2018-02-04T23:22:31.467Z,3.93
2018-02-04T23:24:57.868Z,3.90
2018-02-04T23:27:24.236Z,4.10
2018-02-04T23:29:50.629Z,3.83
2018-02-04T23:32:17.062Z,4.23
2018-02-04T23:34:43.480Z,3.77
2018-02-04T23:37:09.898Z,4.10
2018-02-04T23:39:36.294Z,4.00
2018-02-04T23:42:02.645Z,3.50
2018-02-04T23:44:29.022Z,4.20
2018-02-04T23:46:55.454Z,3.73
2018-02-04T23:49:21.878Z,4.27
2018-02-04T23:51:48.273Z,3.63
2018-02-04T23:54:14.638Z,3.70
2018-02-04T23:56:41.741Z,3.80
2018-02-04T23:59:08.158Z,3.57
